Terminal Aerodrome Forecast
Issued by NWS Tulsa, OK

Home | Current Version | Previous Version | Text Only | Print | Product List | Glossary On
Versions: 1 2 3 4 5 6 7 8 9 10 11 12 13 14 15
526
FTUS44 KTSA 131140
TAFTUL
TAF
KTUL 131140Z 1312/1412 06010KT P6SM SCT250
     FM131800 12010KT P6SM SCT035 BKN250
     FM140000 13011KT P6SM BKN035
     FM140700 15013KT P6SM BKN025
     FM141000 16014KT 5SM BR BKN012=

USA.gov is the U.S. government's official web portal to all federal, state and local government web resources and services.